Carnegie, Oklahoma
Current Conditions -  °F | °C
As of 8:53 AM on Saturday 01 Nov 2014 (Local Time) from KHBR Reporting Station
Clear Clear  
Wind Chill: 36°   Ceiling: Unl
Heat Index: 36°   Visibility: 10mi
Dew Point: 23°   Wind: 0mph
Humidity: 59%   Direction: NA
Pressure: 30.4"   Gusts: NA
Location:  35.1°N, 98.6°W
Report Text: KHBR 011353Z AUTO 00000KT 10SM CLR 02/M05 A3040 RMK AO2 SLP300 T00221050 $
Loading
Personal Weather Stations






























Interactive Weather Map
Tropical Storm Tracking
New forecast layout! Learn more

10-Day Weather Forecast

Advertisements
Track Severe Weather on mobile